sensor_id;sensor_type;location;lat;lon;timestamp;P1;durP1;ratioP1;P2;durP2;ratioP2
37157;SDS011;23050;51.776;22.638;2023-02-28T00:00:19;10.63;;;4.55;;
37157;SDS011;23050;51.776;22.638;2023-02-28T00:02:45;12.50;;;5.25;;
37157;SDS011;23050;51.776;22.638;2023-02-28T00:05:12;11.00;;;4.97;;
37157;SDS011;23050;51.776;22.638;2023-02-28T00:07:38;8.93;;;4.97;;
37157;SDS011;23050;51.776;22.638;2023-02-28T00:10:05;14.93;;;5.30;;
37157;SDS011;23050;51.776;22.638;2023-02-28T00:12:32;20.63;;;7.80;;
37157;SDS011;23050;51.776;22.638;2023-02-28T00:14:59;14.57;;;6.47;;
37157;SDS011;23050;51.776;22.638;2023-02-28T00:17:25;10.45;;;4.85;;
37157;SDS011;23050;51.776;22.638;2023-02-28T00:19:50;10.73;;;5.25;;
37157;SDS011;23050;51.776;22.638;2023-02-28T00:22:17;12.07;;;5.30;;
37157;SDS011;23050;51.776;22.638;2023-02-28T00:24:44;12.68;;;6.22;;
37157;SDS011;23050;51.776;22.638;2023-02-28T00:27:10;12.18;;;4.95;;
37157;SDS011;23050;51.776;22.638;2023-02-28T00:29:36;27.17;;;7.78;;
37157;SDS011;23050;51.776;22.638;2023-02-28T00:32:02;43.58;;;14.52;;
37157;SDS011;23050;51.776;22.638;2023-02-28T00:34:28;80.57;;;23.20;;
37157;SDS011;23050;51.776;22.638;2023-02-28T00:36:54;95.80;;;35.65;;
37157;SDS011;23050;51.776;22.638;2023-02-28T00:39:19;63.85;;;23.63;;
37157;SDS011;23050;51.776;22.638;2023-02-28T00:41:45;18.58;;;6.80;;
37157;SDS011;23050;51.776;22.638;2023-02-28T00:44:11;19.67;;;8.60;;
37157;SDS011;23050;51.776;22.638;2023-02-28T00:46:36;22.17;;;9.05;;
37157;SDS011;23050;51.776;22.638;2023-02-28T00:49:02;24.25;;;8.52;;
37157;SDS011;23050;51.776;22.638;2023-02-28T00:51:27;24.30;;;8.75;;
37157;SDS011;23050;51.776;22.638;2023-02-28T00:53:53;22.63;;;8.20;;
37157;SDS011;23050;51.776;22.638;2023-02-28T00:56:19;29.98;;;10.32;;
37157;SDS011;23050;51.776;22.638;2023-02-28T00:58:44;46.38;;;13.02;;
37157;SDS011;23050;51.776;22.638;2023-02-28T01:01:10;22.70;;;7.97;;
37157;SDS011;23050;51.776;22.638;2023-02-28T01:03:36;34.30;;;12.25;;
37157;SDS011;23050;51.776;22.638;2023-02-28T01:06:01;98.22;;;29.77;;
37157;SDS011;23050;51.776;22.638;2023-02-28T01:08:27;75.57;;;23.48;;
37157;SDS011;23050;51.776;22.638;2023-02-28T01:10:53;12.35;;;5.63;;
37157;SDS011;23050;51.776;22.638;2023-02-28T01:13:19;10.07;;;4.90;;
37157;SDS011;23050;51.776;22.638;2023-02-28T01:15:46;17.67;;;6.18;;
37157;SDS011;23050;51.776;22.638;2023-02-28T01:18:16;21.02;;;7.05;;
37157;SDS011;23050;51.776;22.638;2023-02-28T01:20:41;14.55;;;5.25;;
37157;SDS011;23050;51.776;22.638;2023-02-28T01:23:08;11.90;;;5.07;;
37157;SDS011;23050;51.776;22.638;2023-02-28T01:25:34;11.23;;;4.53;;
37157;SDS011;23050;51.776;22.638;2023-02-28T01:28:00;9.77;;;4.38;;
37157;SDS011;23050;51.776;22.638;2023-02-28T01:30:26;9.73;;;4.78;;
37157;SDS011;23050;51.776;22.638;2023-02-28T01:32:52;15.82;;;4.43;;
37157;SDS011;23050;51.776;22.638;2023-02-28T01:35:18;17.13;;;6.35;;
37157;SDS011;23050;51.776;22.638;2023-02-28T01:37:44;19.58;;;7.28;;
37157;SDS011;23050;51.776;22.638;2023-02-28T01:40:11;14.48;;;5.90;;
37157;SDS011;23050;51.776;22.638;2023-02-28T01:42:37;15.60;;;6.40;;
37157;SDS011;23050;51.776;22.638;2023-02-28T01:47:46;15.13;;;6.38;;
37157;SDS011;23050;51.776;22.638;2023-02-28T01:50:21;10.55;;;5.22;;
37157;SDS011;23050;51.776;22.638;2023-02-28T01:52:49;10.73;;;4.65;;
37157;SDS011;23050;51.776;22.638;2023-02-28T01:55:16;10.23;;;4.15;;
37157;SDS011;23050;51.776;22.638;2023-02-28T01:57:47;10.15;;;3.78;;
37157;SDS011;23050;51.776;22.638;2023-02-28T02:00:17;8.02;;;3.47;;
37157;SDS011;23050;51.776;22.638;2023-02-28T02:05:14;9.95;;;4.85;;
37157;SDS011;23050;51.776;22.638;2023-02-28T02:07:51;14.23;;;5.57;;
37157;SDS011;23050;51.776;22.638;2023-02-28T02:10:21;27.27;;;8.57;;
37157;SDS011;23050;51.776;22.638;2023-02-28T02:18:04;8.68;;;4.53;;
37157;SDS011;23050;51.776;22.638;2023-02-28T02:32:18;19.95;;;6.65;;
37157;SDS011;23050;51.776;22.638;2023-02-28T02:41:04;11.55;;;4.93;;
37157;SDS011;23050;51.776;22.638;2023-02-28T02:43:45;13.43;;;5.25;;
37157;SDS011;23050;51.776;22.638;2023-02-28T02:46:29;10.80;;;5.40;;
37157;SDS011;23050;51.776;22.638;2023-02-28T02:48:57;11.25;;;5.60;;
37157;SDS011;23050;51.776;22.638;2023-02-28T02:51:25;8.30;;;4.18;;
37157;SDS011;23050;51.776;22.638;2023-02-28T02:53:58;12.30;;;4.75;;
37157;SDS011;23050;51.776;22.638;2023-02-28T02:56:30;10.98;;;5.43;;
37157;SDS011;23050;51.776;22.638;2023-02-28T02:59:02;11.40;;;5.70;;
37157;SDS011;23050;51.776;22.638;2023-02-28T03:01:32;13.35;;;5.57;;
37157;SDS011;23050;51.776;22.638;2023-02-28T03:04:01;16.88;;;6.03;;
37157;SDS011;23050;51.776;22.638;2023-02-28T03:06:30;15.23;;;4.90;;
37157;SDS011;23050;51.776;22.638;2023-02-28T03:08:55;21.52;;;7.70;;
37157;SDS011;23050;51.776;22.638;2023-02-28T03:11:21;38.10;;;11.93;;
37157;SDS011;23050;51.776;22.638;2023-02-28T03:19:39;20.33;;;7.25;;
37157;SDS011;23050;51.776;22.638;2023-02-28T03:22:14;30.35;;;10.13;;
37157;SDS011;23050;51.776;22.638;2023-02-28T03:25:07;18.85;;;7.55;;
37157;SDS011;23050;51.776;22.638;2023-02-28T03:27:40;24.30;;;8.55;;
37157;SDS011;23050;51.776;22.638;2023-02-28T03:30:25;27.27;;;9.35;;
37157;SDS011;23050;51.776;22.638;2023-02-28T03:35:34;31.05;;;11.15;;
37157;SDS011;23050;51.776;22.638;2023-02-28T03:38:16;22.27;;;9.10;;
37157;SDS011;23050;51.776;22.638;2023-02-28T03:40:48;29.92;;;10.25;;
37157;SDS011;23050;51.776;22.638;2023-02-28T03:43:23;18.40;;;7.53;;
37157;SDS011;23050;51.776;22.638;2023-02-28T03:45:53;20.48;;;8.30;;
37157;SDS011;23050;51.776;22.638;2023-02-28T03:48:22;19.10;;;7.90;;
37157;SDS011;23050;51.776;22.638;2023-02-28T03:50:54;28.33;;;10.18;;
37157;SDS011;23050;51.776;22.638;2023-02-28T03:55:57;14.13;;;6.55;;
37157;SDS011;23050;51.776;22.638;2023-02-28T03:58:32;15.95;;;6.68;;
37157;SDS011;23050;51.776;22.638;2023-02-28T04:01:09;14.77;;;6.30;;
37157;SDS011;23050;51.776;22.638;2023-02-28T04:03:48;11.68;;;6.13;;
37157;SDS011;23050;51.776;22.638;2023-02-28T04:06:19;14.55;;;7.13;;
37157;SDS011;23050;51.776;22.638;2023-02-28T04:08:46;15.48;;;5.88;;
37157;SDS011;23050;51.776;22.638;2023-02-28T04:11:29;18.70;;;7.10;;
37157;SDS011;23050;51.776;22.638;2023-02-28T04:13:57;18.27;;;6.50;;
37157;SDS011;23050;51.776;22.638;2023-02-28T04:16:23;21.63;;;8.30;;
37157;SDS011;23050;51.776;22.638;2023-02-28T04:18:49;19.98;;;8.82;;
37157;SDS011;23050;51.776;22.638;2023-02-28T04:21:14;18.98;;;7.60;;
37157;SDS011;23050;51.776;22.638;2023-02-28T04:23:40;19.70;;;8.20;;
37157;SDS011;23050;51.776;22.638;2023-02-28T04:26:06;25.67;;;10.15;;
37157;SDS011;23050;51.776;22.638;2023-02-28T04:28:32;31.27;;;12.50;;
37157;SDS011;23050;51.776;22.638;2023-02-28T04:31:03;34.03;;;12.55;;
37157;SDS011;23050;51.776;22.638;2023-02-28T04:33:30;24.67;;;10.45;;
37157;SDS011;23050;51.776;22.638;2023-02-28T04:35:57;23.48;;;10.10;;
37157;SDS011;23050;51.776;22.638;2023-02-28T04:38:28;22.77;;;9.45;;
37157;SDS011;23050;51.776;22.638;2023-02-28T04:40:57;26.73;;;11.60;;
37157;SDS011;23050;51.776;22.638;2023-02-28T04:43:23;23.98;;;10.90;;
37157;SDS011;23050;51.776;22.638;2023-02-28T04:45:50;11.90;;;5.25;;
37157;SDS011;23050;51.776;22.638;2023-02-28T04:48:15;13.75;;;6.05;;
37157;SDS011;23050;51.776;22.638;2023-02-28T04:50:41;18.60;;;7.55;;
37157;SDS011;23050;51.776;22.638;2023-02-28T04:53:06;22.20;;;9.35;;
37157;SDS011;23050;51.776;22.638;2023-02-28T04:55:32;18.67;;;9.43;;
37157;SDS011;23050;51.776;22.638;2023-02-28T04:57:58;24.98;;;10.65;;
37157;SDS011;23050;51.776;22.638;2023-02-28T05:00:23;19.95;;;8.75;;
37157;SDS011;23050;51.776;22.638;2023-02-28T05:02:50;21.10;;;8.88;;
37157;SDS011;23050;51.776;22.638;2023-02-28T05:05:15;17.50;;;6.75;;
37157;SDS011;23050;51.776;22.638;2023-02-28T05:07:42;15.80;;;7.53;;
37157;SDS011;23050;51.776;22.638;2023-02-28T05:10:09;20.88;;;8.65;;
37157;SDS011;23050;51.776;22.638;2023-02-28T05:12:35;15.38;;;7.78;;
37157;SDS011;23050;51.776;22.638;2023-02-28T05:15:00;16.73;;;7.57;;
37157;SDS011;23050;51.776;22.638;2023-02-28T05:17:27;21.58;;;7.13;;
37157;SDS011;23050;51.776;22.638;2023-02-28T05:19:53;17.55;;;8.30;;
37157;SDS011;23050;51.776;22.638;2023-02-28T05:22:18;32.42;;;11.82;;
37157;SDS011;23050;51.776;22.638;2023-02-28T05:24:44;26.33;;;12.52;;
37157;SDS011;23050;51.776;22.638;2023-02-28T05:27:09;20.10;;;9.63;;
37157;SDS011;23050;51.776;22.638;2023-02-28T05:29:35;20.95;;;10.40;;
37157;SDS011;23050;51.776;22.638;2023-02-28T05:32:07;28.38;;;14.60;;
37157;SDS011;23050;51.776;22.638;2023-02-28T05:34:34;26.92;;;12.90;;
37157;SDS011;23050;51.776;22.638;2023-02-28T05:37:00;19.63;;;10.63;;
37157;SDS011;23050;51.776;22.638;2023-02-28T05:39:26;23.63;;;11.60;;
37157;SDS011;23050;51.776;22.638;2023-02-28T05:41:51;25.95;;;13.07;;
37157;SDS011;23050;51.776;22.638;2023-02-28T05:44:17;38.00;;;16.92;;
37157;SDS011;23050;51.776;22.638;2023-02-28T05:46:42;54.88;;;23.92;;
37157;SDS011;23050;51.776;22.638;2023-02-28T05:49:08;48.05;;;21.15;;
37157;SDS011;23050;51.776;22.638;2023-02-28T05:51:34;38.25;;;16.23;;
37157;SDS011;23050;51.776;22.638;2023-02-28T05:54:01;34.53;;;15.70;;
37157;SDS011;23050;51.776;22.638;2023-02-28T05:56:31;27.65;;;12.00;;
37157;SDS011;23050;51.776;22.638;2023-02-28T05:58:59;23.17;;;11.83;;
37157;SDS011;23050;51.776;22.638;2023-02-28T06:01:35;25.98;;;11.40;;
37157;SDS011;23050;51.776;22.638;2023-02-28T06:04:01;25.45;;;11.02;;
37157;SDS011;23050;51.776;22.638;2023-02-28T06:06:29;41.33;;;13.57;;
37157;SDS011;23050;51.776;22.638;2023-02-28T06:08:54;27.83;;;11.57;;
37157;SDS011;23050;51.776;22.638;2023-02-28T06:11:21;20.92;;;9.88;;
37157;SDS011;23050;51.776;22.638;2023-02-28T06:13:47;24.83;;;11.23;;
37157;SDS011;23050;51.776;22.638;2023-02-28T06:16:12;35.22;;;13.52;;
37157;SDS011;23050;51.776;22.638;2023-02-28T06:18:38;26.98;;;11.65;;
37157;SDS011;23050;51.776;22.638;2023-02-28T06:21:04;86.70;;;26.92;;
37157;SDS011;23050;51.776;22.638;2023-02-28T06:23:30;110.78;;;33.75;;
37157;SDS011;23050;51.776;22.638;2023-02-28T06:25:55;122.63;;;39.50;;
37157;SDS011;23050;51.776;22.638;2023-02-28T06:28:23;138.93;;;43.28;;
37157;SDS011;23050;51.776;22.638;2023-02-28T06:30:50;61.95;;;22.67;;
37157;SDS011;23050;51.776;22.638;2023-02-28T06:33:15;37.67;;;14.07;;
37157;SDS011;23050;51.776;22.638;2023-02-28T06:35:43;19.10;;;8.48;;
37157;SDS011;23050;51.776;22.638;2023-02-28T06:38:11;16.95;;;8.23;;
37157;SDS011;23050;51.776;22.638;2023-02-28T06:40:36;18.70;;;9.70;;
37157;SDS011;23050;51.776;22.638;2023-02-28T06:43:02;11.68;;;6.43;;
37157;SDS011;23050;51.776;22.638;2023-02-28T06:45:28;9.23;;;4.97;;
37157;SDS011;23050;51.776;22.638;2023-02-28T06:47:54;9.48;;;5.63;;
37157;SDS011;23050;51.776;22.638;2023-02-28T06:50:20;13.27;;;6.75;;
37157;SDS011;23050;51.776;22.638;2023-02-28T06:52:46;12.65;;;6.65;;
37157;SDS011;23050;51.776;22.638;2023-02-28T06:55:12;16.65;;;10.20;;
37157;SDS011;23050;51.776;22.638;2023-02-28T06:57:38;17.70;;;11.27;;
37157;SDS011;23050;51.776;22.638;2023-02-28T07:00:05;31.00;;;15.35;;
37157;SDS011;23050;51.776;22.638;2023-02-28T07:02:33;38.67;;;19.40;;
37157;SDS011;23050;51.776;22.638;2023-02-28T07:04:59;150.98;;;64.32;;
37157;SDS011;23050;51.776;22.638;2023-02-28T07:07:25;166.02;;;76.13;;
37157;SDS011;23050;51.776;22.638;2023-02-28T07:09:51;93.40;;;43.08;;
37157;SDS011;23050;51.776;22.638;2023-02-28T07:12:16;79.57;;;38.75;;
37157;SDS011;23050;51.776;22.638;2023-02-28T07:14:42;35.97;;;20.08;;
37157;SDS011;23050;51.776;22.638;2023-02-28T07:17:08;12.18;;;6.30;;
37157;SDS011;23050;51.776;22.638;2023-02-28T07:19:37;13.60;;;8.10;;
37157;SDS011;23050;51.776;22.638;2023-02-28T07:22:03;15.07;;;8.57;;
37157;SDS011;23050;51.776;22.638;2023-02-28T07:24:29;9.40;;;6.57;;
37157;SDS011;23050;51.776;22.638;2023-02-28T07:26:55;11.15;;;6.13;;
37157;SDS011;23050;51.776;22.638;2023-02-28T07:29:21;9.27;;;5.63;;
37157;SDS011;23050;51.776;22.638;2023-02-28T07:31:46;8.40;;;5.28;;
37157;SDS011;23050;51.776;22.638;2023-02-28T07:34:12;12.52;;;7.85;;
37157;SDS011;23050;51.776;22.638;2023-02-28T07:36:38;10.23;;;7.43;;
37157;SDS011;23050;51.776;22.638;2023-02-28T07:39:04;37.17;;;18.60;;
37157;SDS011;23050;51.776;22.638;2023-02-28T07:41:30;79.80;;;34.17;;
37157;SDS011;23050;51.776;22.638;2023-02-28T07:43:59;24.25;;;13.82;;
37157;SDS011;23050;51.776;22.638;2023-02-28T07:46:25;18.65;;;11.63;;
37157;SDS011;23050;51.776;22.638;2023-02-28T07:48:51;16.17;;;12.30;;
37157;SDS011;23050;51.776;22.638;2023-02-28T07:51:17;17.90;;;8.15;;
37157;SDS011;23050;51.776;22.638;2023-02-28T07:53:43;12.30;;;7.50;;
37157;SDS011;23050;51.776;22.638;2023-02-28T07:56:09;20.88;;;11.55;;
37157;SDS011;23050;51.776;22.638;2023-02-28T07:58:35;17.98;;;8.32;;
37157;SDS011;23050;51.776;22.638;2023-02-28T08:01:05;20.92;;;10.07;;
37157;SDS011;23050;51.776;22.638;2023-02-28T08:03:32;32.90;;;15.70;;
37157;SDS011;23050;51.776;22.638;2023-02-28T08:05:57;21.58;;;13.60;;
37157;SDS011;23050;51.776;22.638;2023-02-28T08:08:23;28.33;;;21.25;;
37157;SDS011;23050;51.776;22.638;2023-02-28T08:10:48;16.25;;;12.10;;
37157;SDS011;23050;51.776;22.638;2023-02-28T08:13:14;10.82;;;7.82;;
37157;SDS011;23050;51.776;22.638;2023-02-28T08:15:41;8.45;;;6.43;;
37157;SDS011;23050;51.776;22.638;2023-02-28T08:18:07;7.78;;;5.30;;
37157;SDS011;23050;51.776;22.638;2023-02-28T08:20:33;9.40;;;6.53;;
37157;SDS011;23050;51.776;22.638;2023-02-28T08:22:59;9.18;;;6.32;;
37157;SDS011;23050;51.776;22.638;2023-02-28T08:25:25;12.35;;;7.82;;
37157;SDS011;23050;51.776;22.638;2023-02-28T08:27:51;16.02;;;9.98;;
37157;SDS011;23050;51.776;22.638;2023-02-28T08:30:17;44.60;;;36.90;;
37157;SDS011;23050;51.776;22.638;2023-02-28T08:32:43;14.00;;;9.32;;
37157;SDS011;23050;51.776;22.638;2023-02-28T08:35:08;20.52;;;13.02;;
37157;SDS011;23050;51.776;22.638;2023-02-28T08:37:34;12.82;;;7.93;;
37157;SDS011;23050;51.776;22.638;2023-02-28T08:40:00;31.20;;;16.83;;
37157;SDS011;23050;51.776;22.638;2023-02-28T08:42:26;105.07;;;46.75;;
37157;SDS011;23050;51.776;22.638;2023-02-28T08:44:51;32.45;;;18.15;;
37157;SDS011;23050;51.776;22.638;2023-02-28T08:47:17;30.08;;;19.88;;
37157;SDS011;23050;51.776;22.638;2023-02-28T08:49:43;50.00;;;24.08;;
37157;SDS011;23050;51.776;22.638;2023-02-28T08:52:08;18.52;;;14.13;;
37157;SDS011;23050;51.776;22.638;2023-02-28T08:54:35;13.52;;;7.95;;
37157;SDS011;23050;51.776;22.638;2023-02-28T08:57:01;16.23;;;11.07;;
37157;SDS011;23050;51.776;22.638;2023-02-28T08:59:27;53.33;;;29.88;;
37157;SDS011;23050;51.776;22.638;2023-02-28T09:01:53;54.08;;;39.80;;
37157;SDS011;23050;51.776;22.638;2023-02-28T09:04:18;13.77;;;10.43;;
37157;SDS011;23050;51.776;22.638;2023-02-28T09:06:44;13.00;;;7.93;;
37157;SDS011;23050;51.776;22.638;2023-02-28T09:09:09;24.05;;;15.05;;
37157;SDS011;23050;51.776;22.638;2023-02-28T09:11:35;11.57;;;7.68;;
37157;SDS011;23050;51.776;22.638;2023-02-28T09:14:01;25.90;;;16.10;;
37157;SDS011;23050;51.776;22.638;2023-02-28T09:16:28;13.20;;;9.23;;
37157;SDS011;23050;51.776;22.638;2023-02-28T09:18:55;14.85;;;9.68;;
37157;SDS011;23050;51.776;22.638;2023-02-28T09:21:21;9.93;;;7.00;;
37157;SDS011;23050;51.776;22.638;2023-02-28T09:23:47;11.48;;;8.10;;
37157;SDS011;23050;51.776;22.638;2023-02-28T09:26:15;11.35;;;7.70;;
37157;SDS011;23050;51.776;22.638;2023-02-28T09:28:47;17.50;;;11.80;;
37157;SDS011;23050;51.776;22.638;2023-02-28T09:31:14;17.10;;;9.02;;
37157;SDS011;23050;51.776;22.638;2023-02-28T09:33:41;23.03;;;13.00;;
37157;SDS011;23050;51.776;22.638;2023-02-28T09:36:07;18.30;;;11.88;;
37157;SDS011;23050;51.776;22.638;2023-02-28T09:38:33;49.25;;;30.15;;
37157;SDS011;23050;51.776;22.638;2023-02-28T09:41:00;15.93;;;9.00;;
37157;SDS011;23050;51.776;22.638;2023-02-28T09:43:33;25.52;;;15.05;;
37157;SDS011;23050;51.776;22.638;2023-02-28T09:48:54;18.48;;;13.35;;
37157;SDS011;23050;51.776;22.638;2023-02-28T09:51:30;23.77;;;15.90;;
37157;SDS011;23050;51.776;22.638;2023-02-28T09:54:02;20.58;;;11.18;;
37157;SDS011;23050;51.776;22.638;2023-02-28T09:56:35;12.23;;;9.18;;
37157;SDS011;23050;51.776;22.638;2023-02-28T09:59:05;18.23;;;11.25;;
37157;SDS011;23050;51.776;22.638;2023-02-28T10:06:50;18.98;;;11.30;;
37157;SDS011;23050;51.776;22.638;2023-02-28T10:09:32;22.60;;;14.50;;
37157;SDS011;23050;51.776;22.638;2023-02-28T10:12:03;15.73;;;9.73;;
37157;SDS011;23050;51.776;22.638;2023-02-28T10:14:31;16.63;;;10.35;;
37157;SDS011;23050;51.776;22.638;2023-02-28T10:16:59;15.38;;;9.77;;
37157;SDS011;23050;51.776;22.638;2023-02-28T10:19:40;15.85;;;9.88;;
37157;SDS011;23050;51.776;22.638;2023-02-28T10:22:40;28.63;;;16.42;;
37157;SDS011;23050;51.776;22.638;2023-02-28T10:25:17;30.75;;;15.00;;
37157;SDS011;23050;51.776;22.638;2023-02-28T10:27:45;15.48;;;8.70;;
37157;SDS011;23050;51.776;22.638;2023-02-28T10:30:11;14.77;;;9.23;;
37157;SDS011;23050;51.776;22.638;2023-02-28T10:32:38;17.00;;;9.30;;
37157;SDS011;23050;51.776;22.638;2023-02-28T10:37:47;20.55;;;10.70;;
37157;SDS011;23050;51.776;22.638;2023-02-28T10:42:54;84.07;;;41.83;;
37157;SDS011;23050;51.776;22.638;2023-02-28T10:45:25;42.30;;;23.30;;
37157;SDS011;23050;51.776;22.638;2023-02-28T10:47:53;54.00;;;25.13;;
37157;SDS011;23050;51.776;22.638;2023-02-28T10:52:52;13.93;;;9.13;;
37157;SDS011;23050;51.776;22.638;2023-02-28T10:55:25;152.77;;;74.70;;
37157;SDS011;23050;51.776;22.638;2023-02-28T10:57:54;22.27;;;13.68;;
37157;SDS011;23050;51.776;22.638;2023-02-28T11:00:21;32.08;;;19.80;;
37157;SDS011;23050;51.776;22.638;2023-02-28T11:02:50;120.28;;;59.13;;
37157;SDS011;23050;51.776;22.638;2023-02-28T11:05:27;22.70;;;13.18;;
37157;SDS011;23050;51.776;22.638;2023-02-28T11:08:05;71.38;;;36.03;;
37157;SDS011;23050;51.776;22.638;2023-02-28T11:10:36;21.60;;;12.20;;
37157;SDS011;23050;51.776;22.638;2023-02-28T11:13:02;29.50;;;16.52;;
37157;SDS011;23050;51.776;22.638;2023-02-28T11:15:30;24.08;;;13.43;;
37157;SDS011;23050;51.776;22.638;2023-02-28T11:18:02;18.83;;;12.45;;
37157;SDS011;23050;51.776;22.638;2023-02-28T11:20:36;63.95;;;36.60;;
37157;SDS011;23050;51.776;22.638;2023-02-28T11:23:03;18.17;;;11.45;;
37157;SDS011;23050;51.776;22.638;2023-02-28T11:25:31;13.93;;;9.77;;
37157;SDS011;23050;51.776;22.638;2023-02-28T11:27:59;23.73;;;12.65;;
37157;SDS011;23050;51.776;22.638;2023-02-28T11:33:07;26.75;;;17.98;;
37157;SDS011;23050;51.776;22.638;2023-02-28T11:35:59;15.52;;;9.82;;
37157;SDS011;23050;51.776;22.638;2023-02-28T11:38:28;14.50;;;9.85;;
37157;SDS011;23050;51.776;22.638;2023-02-28T11:41:01;16.65;;;9.57;;
37157;SDS011;23050;51.776;22.638;2023-02-28T11:51:34;18.23;;;10.90;;
37157;SDS011;23050;51.776;22.638;2023-02-28T12:00:12;18.92;;;11.73;;
37157;SDS011;23050;51.776;22.638;2023-02-28T12:02:51;17.40;;;11.45;;
37157;SDS011;23050;51.776;22.638;2023-02-28T12:05:39;20.75;;;12.75;;
37157;SDS011;23050;51.776;22.638;2023-02-28T12:19:48;105.93;;;41.50;;
37157;SDS011;23050;51.776;22.638;2023-02-28T12:28:01;18.48;;;11.63;;
37157;SDS011;23050;51.776;22.638;2023-02-28T12:30:32;31.95;;;15.95;;
37157;SDS011;23050;51.776;22.638;2023-02-28T12:33:05;19.08;;;11.80;;
37157;SDS011;23050;51.776;22.638;2023-02-28T12:39:04;22.80;;;13.18;;
37157;SDS011;23050;51.776;22.638;2023-02-28T12:41:48;48.13;;;22.42;;
37157;SDS011;23050;51.776;22.638;2023-02-28T12:44:31;25.50;;;14.68;;
37157;SDS011;23050;51.776;22.638;2023-02-28T12:47:04;19.92;;;12.30;;
37157;SDS011;23050;51.776;22.638;2023-02-28T12:49:37;59.80;;;25.27;;
37157;SDS011;23050;51.776;22.638;2023-02-28T12:52:07;20.23;;;11.98;;
37157;SDS011;23050;51.776;22.638;2023-02-28T12:54:44;60.58;;;26.23;;
37157;SDS011;23050;51.776;22.638;2023-02-28T13:00:00;16.45;;;11.70;;
37157;SDS011;23050;51.776;22.638;2023-02-28T13:11:30;22.63;;;13.93;;
37157;SDS011;23050;51.776;22.638;2023-02-28T13:16:50;166.68;;;62.60;;
37157;SDS011;23050;51.776;22.638;2023-02-28T13:19:19;174.38;;;62.55;;
37157;SDS011;23050;51.776;22.638;2023-02-28T13:21:48;99.88;;;38.13;;
37157;SDS011;23050;51.776;22.638;2023-02-28T13:29:28;32.15;;;17.02;;
37157;SDS011;23050;51.776;22.638;2023-02-28T13:34:35;21.85;;;12.57;;
37157;SDS011;23050;51.776;22.638;2023-02-28T13:47:43;29.45;;;13.52;;
37157;SDS011;23050;51.776;22.638;2023-02-28T13:53:02;20.73;;;12.80;;
37157;SDS011;23050;51.776;22.638;2023-02-28T14:01:30;26.05;;;18.45;;
37157;SDS011;23050;51.776;22.638;2023-02-28T14:04:54;23.13;;;14.77;;
37157;SDS011;23050;51.776;22.638;2023-02-28T14:07:27;149.20;;;58.25;;
37157;SDS011;23050;51.776;22.638;2023-02-28T14:09:59;65.50;;;31.58;;
37157;SDS011;23050;51.776;22.638;2023-02-28T14:18:05;136.60;;;52.65;;
37157;SDS011;23050;51.776;22.638;2023-02-28T14:20:47;46.33;;;22.02;;
37157;SDS011;23050;51.776;22.638;2023-02-28T14:31:51;205.20;;;89.68;;
37157;SDS011;23050;51.776;22.638;2023-02-28T14:37:20;21.42;;;12.70;;
37157;SDS011;23050;51.776;22.638;2023-02-28T14:39:56;94.05;;;41.50;;
37157;SDS011;23050;51.776;22.638;2023-02-28T14:42:33;49.55;;;22.50;;
37157;SDS011;23050;51.776;22.638;2023-02-28T14:45:00;88.80;;;42.65;;
37157;SDS011;23050;51.776;22.638;2023-02-28T14:47:27;124.95;;;55.10;;
37157;SDS011;23050;51.776;22.638;2023-02-28T14:52:23;113.57;;;49.95;;
37157;SDS011;23050;51.776;22.638;2023-02-28T14:54:53;100.88;;;42.78;;
37157;SDS011;23050;51.776;22.638;2023-02-28T14:57:21;95.38;;;46.95;;
37157;SDS011;23050;51.776;22.638;2023-02-28T14:59:56;96.70;;;43.85;;
37157;SDS011;23050;51.776;22.638;2023-02-28T15:02:29;162.82;;;57.10;;
37157;SDS011;23050;51.776;22.638;2023-02-28T15:04:59;73.95;;;40.33;;
37157;SDS011;23050;51.776;22.638;2023-02-28T15:07:34;70.45;;;34.10;;
37157;SDS011;23050;51.776;22.638;2023-02-28T15:13:06;91.35;;;43.00;;
37157;SDS011;23050;51.776;22.638;2023-02-28T15:15:52;66.03;;;32.22;;
37157;SDS011;23050;51.776;22.638;2023-02-28T15:18:37;88.70;;;38.25;;
37157;SDS011;23050;51.776;22.638;2023-02-28T15:21:14;147.88;;;61.42;;
37157;SDS011;23050;51.776;22.638;2023-02-28T15:23:46;186.27;;;96.35;;
37157;SDS011;23050;51.776;22.638;2023-02-28T15:26:17;53.05;;;22.25;;
37157;SDS011;23050;51.776;22.638;2023-02-28T15:28:49;73.80;;;30.98;;
37157;SDS011;23050;51.776;22.638;2023-02-28T15:31:29;201.85;;;69.72;;
37157;SDS011;23050;51.776;22.638;2023-02-28T15:34:03;382.02;;;135.40;;
37157;SDS011;23050;51.776;22.638;2023-02-28T15:36:47;208.75;;;77.65;;
37157;SDS011;23050;51.776;22.638;2023-02-28T15:39:23;352.05;;;133.35;;
37157;SDS011;23050;51.776;22.638;2023-02-28T15:42:10;328.23;;;131.68;;
37157;SDS011;23050;51.776;22.638;2023-02-28T15:44:36;272.08;;;103.32;;
37157;SDS011;23050;51.776;22.638;2023-02-28T15:47:03;170.45;;;67.88;;
37157;SDS011;23050;51.776;22.638;2023-02-28T15:49:47;216.75;;;84.30;;
37157;SDS011;23050;51.776;22.638;2023-02-28T15:52:39;160.15;;;62.45;;
37157;SDS011;23050;51.776;22.638;2023-02-28T15:55:22;273.33;;;114.80;;
37157;SDS011;23050;51.776;22.638;2023-02-28T15:57:51;390.77;;;145.43;;
37157;SDS011;23050;51.776;22.638;2023-02-28T16:00:21;278.85;;;107.97;;
37157;SDS011;23050;51.776;22.638;2023-02-28T16:02:48;520.92;;;197.63;;
37157;SDS011;23050;51.776;22.638;2023-02-28T16:07:59;367.88;;;137.57;;
37157;SDS011;23050;51.776;22.638;2023-02-28T16:10:38;574.55;;;218.65;;
37157;SDS011;23050;51.776;22.638;2023-02-28T16:13:04;397.60;;;147.68;;
37157;SDS011;23050;51.776;22.638;2023-02-28T16:15:30;251.77;;;93.60;;
37157;SDS011;23050;51.776;22.638;2023-02-28T16:18:07;545.03;;;229.05;;
37157;SDS011;23050;51.776;22.638;2023-02-28T16:20:37;556.42;;;243.07;;
37157;SDS011;23050;51.776;22.638;2023-02-28T16:23:03;491.55;;;209.15;;
37157;SDS011;23050;51.776;22.638;2023-02-28T16:25:33;854.78;;;343.85;;
37157;SDS011;23050;51.776;22.638;2023-02-28T16:28:01;522.28;;;217.38;;
37157;SDS011;23050;51.776;22.638;2023-02-28T16:30:28;516.78;;;212.70;;
37157;SDS011;23050;51.776;22.638;2023-02-28T16:32:57;541.47;;;234.23;;
37157;SDS011;23050;51.776;22.638;2023-02-28T16:35:23;591.25;;;266.63;;
37157;SDS011;23050;51.776;22.638;2023-02-28T16:37:52;571.63;;;250.88;;
37157;SDS011;23050;51.776;22.638;2023-02-28T16:40:19;467.17;;;195.02;;
37157;SDS011;23050;51.776;22.638;2023-02-28T16:42:47;319.27;;;129.45;;
37157;SDS011;23050;51.776;22.638;2023-02-28T16:45:16;450.38;;;192.85;;
37157;SDS011;23050;51.776;22.638;2023-02-28T16:47:50;465.88;;;196.40;;
37157;SDS011;23050;51.776;22.638;2023-02-28T16:50:16;436.10;;;176.65;;
37157;SDS011;23050;51.776;22.638;2023-02-28T16:52:44;308.90;;;134.52;;
37157;SDS011;23050;51.776;22.638;2023-02-28T16:55:10;496.17;;;215.50;;
37157;SDS011;23050;51.776;22.638;2023-02-28T16:57:36;442.02;;;183.90;;
37157;SDS011;23050;51.776;22.638;2023-02-28T17:00:02;440.52;;;182.35;;
37157;SDS011;23050;51.776;22.638;2023-02-28T17:02:29;296.65;;;124.43;;